Time;durP1;ratioP1;P1;durP2;ratioP2;P2;SDS_P1;SDS_P2;PMS_P1;PMS_P2;Temp;Humidity;BMP_temperature;BMP_pressure;BME280_temperature;BME280_humidity;BME280_pressure;Samples;Min_cycle;Max_cycle;Signal;HPM_P1;HPM_P2
2023/06/17 00:02:02;;;;;;;14.82;12.57;;;;;;;;;;5073673;28;20040;-83
2023/06/17 00:04:28;;;;;;;18.13;14.27;;;;;;;;;;5073775;28;20147;-83
2023/06/17 00:06:54;;;;;;;18.75;14.98;;;;;;;;;;5073351;28;20051;-83
2023/06/17 00:09:20;;;;;;;17.95;15.38;;;;;;;;;;5074063;28;20049;-83
2023/06/17 00:11:47;;;;;;;19.13;15.27;;;;;;;;;;5073553;28;20048;-83
2023/06/17 00:14:17;;;;;;;19.23;15.98;;;;;;;;;;5073613;28;20149;-84
2023/06/17 00:16:43;;;;;;;23.88;16.50;;;;;;;;;;5056881;28;20455;-84
2023/06/17 00:19:16;;;;;;;22.00;15.60;;;;;;;;;;5073723;28;20161;-84
2023/06/17 00:21:49;;;;;;;19.35;15.27;;;;;;;;;;5073861;28;20040;-84
2023/06/17 00:24:19;;;;;;;25.17;16.83;;;;;;;;;;5073663;28;20037;-83
2023/06/17 00:26:45;;;;;;;20.77;16.50;;;;;;;;;;5074466;28;20051;-78
2023/06/17 00:29:11;;;;;;;22.73;16.75;;;;;;;;;;5073495;28;20051;-83
2023/06/17 00:31:37;;;;;;;22.23;16.85;;;;;;;;;;5107332;28;20052;-83
2023/06/17 00:34:04;;;;;;;20.85;15.23;;;;;;;;;;5073157;28;20497;-82
2023/06/17 00:36:30;;;;;;;23.60;14.73;;;;;;;;;;5073424;28;20040;-79
2023/06/17 00:38:56;;;;;;;31.70;18.27;;;;;;;;;;5073192;28;20119;-78
2023/06/17 00:41:22;;;;;;;24.20;16.75;;;;;;;;;;5056626;28;20066;-78
2023/06/17 00:43:48;;;;;;;22.55;16.88;;;;;;;;;;5039823;28;20477;-78
2023/06/17 00:46:23;;;;;;;30.30;17.90;;;;;;;;;;5065087;28;20038;-78
2023/06/17 00:48:49;;;;;;;29.98;18.67;;;;;;;;;;5087336;28;20067;-78
2023/06/17 00:51:16;;;;;;;26.90;18.33;;;;;;;;;;5067878;28;20036;-78
2023/06/17 00:53:42;;;;;;;28.02;18.10;;;;;;;;;;5058244;28;20059;-78
2023/06/17 00:56:08;;;;;;;22.77;18.20;;;;;;;;;;5056745;28;20049;-84
2023/06/17 00:58:35;;;;;;;25.58;19.05;;;;;;;;;;5073515;28;20044;-78
2023/06/17 01:01:01;;;;;;;21.75;18.00;;;;;;;;;;5072749;28;20485;-84
2023/06/17 01:03:29;;;;;;;25.33;18.45;;;;;;;;;;5056011;28;20065;-84
2023/06/17 01:05:57;;;;;;;26.88;19.65;;;;;;;;;;5059074;28;20119;-78
2023/06/17 01:08:28;;;;;;;23.60;17.60;;;;;;;;;;5072641;28;20408;-77
2023/06/17 01:11:07;;;;;;;23.67;18.08;;;;;;;;;;5072485;28;20052;-78
2023/06/17 01:13:34;;;;;;;26.88;19.58;;;;;;;;;;5072519;28;20123;-78
2023/06/17 01:16:01;;;;;;;25.00;18.02;;;;;;;;;;5066631;28;20496;-78
2023/06/17 01:18:28;;;;;;;24.55;18.33;;;;;;;;;;5072388;28;20076;-78
2023/06/17 01:20:55;;;;;;;21.98;18.42;;;;;;;;;;5068726;28;20041;-78
2023/06/17 01:23:23;;;;;;;24.55;18.48;;;;;;;;;;5061904;28;20084;-78
2023/06/17 01:25:49;;;;;;;23.30;18.23;;;;;;;;;;5072472;28;20405;-83
2023/06/17 01:28:17;;;;;;;26.20;17.25;;;;;;;;;;5039156;28;20154;-84
2023/06/17 01:30:47;;;;;;;21.60;16.85;;;;;;;;;;5072189;28;20048;-83
2023/06/17 01:33:15;;;;;;;24.85;19.58;;;;;;;;;;5071889;28;20047;-83
2023/06/17 01:35:53;;;;;;;24.30;20.02;;;;;;;;;;5071442;28;20041;-83
2023/06/17 01:38:25;;;;;;;22.92;19.42;;;;;;;;;;5055591;28;20052;-78
2023/06/17 01:40:57;;;;;;;24.85;18.30;;;;;;;;;;5071719;28;20076;-78
2023/06/17 01:43:24;;;;;;;19.95;15.82;;;;;;;;;;5055444;28;20047;-83
2023/06/17 01:45:51;;;;;;;21.25;18.27;;;;;;;;;;5071870;28;20067;-83
2023/06/17 01:48:17;;;;;;;22.27;16.95;;;;;;;;;;5055375;28;20083;-78
2023/06/17 01:50:44;;;;;;;20.95;18.63;;;;;;;;;;5071802;28;20044;-78
2023/06/17 01:53:10;;;;;;;23.77;19.45;;;;;;;;;;5054514;28;20048;-78
2023/06/17 01:55:36;;;;;;;25.23;18.42;;;;;;;;;;5064085;28;20053;-83
2023/06/17 01:58:02;;;;;;;26.75;20.05;;;;;;;;;;5066010;28;20393;-83
2023/06/17 02:00:28;;;;;;;25.02;18.70;;;;;;;;;;5071244;28;20036;-83
2023/06/17 02:02:55;;;;;;;26.10;19.85;;;;;;;;;;5053180;28;20058;-83
2023/06/17 02:05:21;;;;;;;97.38;23.25;;;;;;;;;;5050723;28;20049;-83
2023/06/17 02:07:47;;;;;;;253.23;25.17;;;;;;;;;;5051132;28;20052;-83
2023/06/17 02:10:13;;;;;;;27.02;19.17;;;;;;;;;;5035056;28;20486;-83
2023/06/17 02:12:40;;;;;;;24.75;20.42;;;;;;;;;;5051602;28;20095;-83
2023/06/17 02:15:06;;;;;;;24.30;19.52;;;;;;;;;;5051295;28;20037;-83
2023/06/17 02:17:35;;;;;;;23.00;18.42;;;;;;;;;;5051453;28;20120;-78
2023/06/17 02:20:01;;;;;;;18.17;14.95;;;;;;;;;;5051095;28;20045;-78
2023/06/17 02:22:27;;;;;;;19.73;17.58;;;;;;;;;;5034668;28;20052;-83
2023/06/17 02:24:54;;;;;;;26.23;19.55;;;;;;;;;;5051300;28;20394;-83
2023/06/17 02:27:20;;;;;;;20.92;18.63;;;;;;;;;;5050522;28;20121;-83
2023/06/17 02:29:46;;;;;;;24.90;19.80;;;;;;;;;;5034806;28;20436;-83
2023/06/17 02:32:12;;;;;;;20.05;16.90;;;;;;;;;;5050585;28;20041;-78
2023/06/17 02:34:38;;;;;;;25.95;19.83;;;;;;;;;;5051033;28;20029;-78
2023/06/17 02:37:07;;;;;;;22.40;17.60;;;;;;;;;;5034008;28;20044;-78
2023/06/17 02:39:33;;;;;;;17.05;15.27;;;;;;;;;;5051102;28;20044;-78
2023/06/17 02:41:59;;;;;;;27.55;15.15;;;;;;;;;;5050537;28;20037;-83
2023/06/17 02:44:25;;;;;;;56.47;17.50;;;;;;;;;;5034837;28;20040;-83
2023/06/17 02:46:51;;;;;;;63.17;19.23;;;;;;;;;;5050248;28;20048;-83
2023/06/17 02:49:17;;;;;;;37.83;17.50;;;;;;;;;;5050697;28;20044;-83
2023/06/17 02:51:43;;;;;;;42.63;19.60;;;;;;;;;;5050784;28;20055;-83
2023/06/17 02:54:11;;;;;;;41.17;20.15;;;;;;;;;;5060415;28;20049;-83
2023/06/17 02:56:37;;;;;;;44.10;18.08;;;;;;;;;;5070942;28;20102;-83
2023/06/17 02:59:03;;;;;;;37.03;18.17;;;;;;;;;;5054111;28;20500;-83
2023/06/17 03:01:30;;;;;;;39.42;19.20;;;;;;;;;;5071682;28;20451;-83
2023/06/17 03:04:01;;;;;;;48.90;18.42;;;;;;;;;;5070999;28;20041;-83
2023/06/17 03:06:31;;;;;;;27.33;16.80;;;;;;;;;;5070781;28;20079;-83
2023/06/17 03:08:57;;;;;;;27.60;17.17;;;;;;;;;;5038028;28;20127;-78
2023/06/17 03:11:24;;;;;;;22.98;16.60;;;;;;;;;;5054103;28;20045;-83
2023/06/17 03:13:50;;;;;;;35.85;17.92;;;;;;;;;;5070571;28;20068;-83
2023/06/17 03:16:16;;;;;;;23.85;18.08;;;;;;;;;;5068393;28;20037;-83
2023/06/17 03:18:43;;;;;;;25.85;18.67;;;;;;;;;;5054234;28;20500;-83
2023/06/17 03:21:09;;;;;;;26.63;19.33;;;;;;;;;;5053730;28;20094;-83
2023/06/17 03:23:35;;;;;;;24.23;17.80;;;;;;;;;;5070426;28;20127;-84
2023/06/17 03:26:01;;;;;;;21.70;17.90;;;;;;;;;;5070566;28;20048;-77
2023/06/17 03:28:27;;;;;;;26.38;17.10;;;;;;;;;;5070020;28;20116;-83
2023/06/17 03:30:53;;;;;;;23.02;16.40;;;;;;;;;;5053781;28;20411;-83
2023/06/17 03:33:19;;;;;;;106.85;27.17;;;;;;;;;;5053502;28;20041;-84
2023/06/17 03:35:45;;;;;;;34.38;20.42;;;;;;;;;;5070277;28;20041;-78
2023/06/17 03:38:11;;;;;;;22.83;15.75;;;;;;;;;;5070068;28;20049;-78
2023/06/17 03:40:37;;;;;;;20.65;14.23;;;;;;;;;;5036734;28;20045;-77
2023/06/17 03:43:03;;;;;;;19.13;14.68;;;;;;;;;;5040312;28;20044;-78
2023/06/17 03:45:30;;;;;;;19.83;15.60;;;;;;;;;;5069909;28;20138;-77
2023/06/17 03:47:57;;;;;;;22.50;16.85;;;;;;;;;;5070516;28;20044;-77
2023/06/17 03:50:23;;;;;;;18.67;14.23;;;;;;;;;;5070278;28;20041;-78
2023/06/17 03:52:49;;;;;;;17.17;14.57;;;;;;;;;;5069915;28;20102;-78
2023/06/17 03:55:16;;;;;;;17.98;14.75;;;;;;;;;;5053957;28;20485;-77
2023/06/17 03:57:43;;;;;;;17.42;13.23;;;;;;;;;;5070784;28;20074;-78
2023/06/17 04:00:11;;;;;;;20.33;14.65;;;;;;;;;;5057116;28;20118;-83
2023/06/17 04:02:37;;;;;;;16.42;13.60;;;;;;;;;;5054987;28;20050;-83
2023/06/17 04:05:05;;;;;;;17.83;14.13;;;;;;;;;;5053290;28;20044;-83
2023/06/17 04:07:32;;;;;;;36.40;16.10;;;;;;;;;;5053169;28;20045;-83
2023/06/17 04:09:59;;;;;;;23.25;16.30;;;;;;;;;;5037655;28;20532;-83
2023/06/17 04:12:25;;;;;;;21.23;15.85;;;;;;;;;;5053450;28;20045;-84
2023/06/17 04:14:51;;;;;;;25.20;17.17;;;;;;;;;;5054173;28;20047;-84
2023/06/17 04:17:17;;;;;;;23.85;15.93;;;;;;;;;;5053801;28;20136;-84
2023/06/17 04:19:44;;;;;;;19.60;16.05;;;;;;;;;;5054087;28;20053;-84
2023/06/17 04:22:10;;;;;;;21.45;14.93;;;;;;;;;;5054283;28;20528;-83
2023/06/17 04:24:38;;;;;;;20.77;15.35;;;;;;;;;;5053724;28;20040;-84
2023/06/17 04:27:05;;;;;;;20.65;16.30;;;;;;;;;;5037063;28;20478;-84
2023/06/17 04:29:34;;;;;;;18.17;15.85;;;;;;;;;;5036770;28;20123;-84
2023/06/17 04:32:01;;;;;;;20.45;16.30;;;;;;;;;;5053654;28;20135;-84
2023/06/17 04:34:28;;;;;;;20.50;15.55;;;;;;;;;;5052890;28;20041;-84
2023/06/17 04:36:57;;;;;;;20.58;15.82;;;;;;;;;;5053228;28;20398;-84
2023/06/17 04:39:26;;;;;;;20.30;15.10;;;;;;;;;;5053924;28;20037;-83
2023/06/17 04:41:53;;;;;;;17.65;14.90;;;;;;;;;;5053622;28;20041;-78
2023/06/17 04:44:19;;;;;;;17.85;14.88;;;;;;;;;;5053858;28;20032;-78
2023/06/17 04:46:45;;;;;;;21.13;15.00;;;;;;;;;;5036652;28;20440;-78
2023/06/17 04:49:12;;;;;;;22.23;15.60;;;;;;;;;;5054021;28;20557;-78
2023/06/17 04:51:40;;;;;;;18.35;13.88;;;;;;;;;;5036647;28;20043;-83
2023/06/17 04:54:06;;;;;;;22.95;15.82;;;;;;;;;;5062016;28;20059;-83
2023/06/17 04:56:33;;;;;;;24.60;17.42;;;;;;;;;;5073676;28;20408;-78
2023/06/17 04:58:59;;;;;;;23.65;17.60;;;;;;;;;;5072784;28;20093;-78
2023/06/17 05:01:25;;;;;;;26.95;17.85;;;;;;;;;;5056248;28;20049;-78
2023/06/17 05:03:51;;;;;;;20.08;12.90;;;;;;;;;;5055926;28;20044;-78
2023/06/17 05:06:17;;;;;;;29.42;18.40;;;;;;;;;;5072585;28;20139;-78
2023/06/17 05:08:43;;;;;;;32.20;18.83;;;;;;;;;;5072271;28;20539;-78
2023/06/17 05:11:09;;;;;;;28.88;18.02;;;;;;;;;;5055379;28;20044;-78
2023/06/17 05:13:36;;;;;;;30.20;19.10;;;;;;;;;;5072084;28;20059;-78
2023/06/17 05:16:02;;;;;;;26.77;16.70;;;;;;;;;;5069722;28;20089;-78
2023/06/17 05:18:28;;;;;;;35.85;20.65;;;;;;;;;;5072056;28;20072;-78
2023/06/17 05:20:54;;;;;;;45.17;20.63;;;;;;;;;;5072396;28;20051;-78
2023/06/17 05:23:20;;;;;;;30.98;20.58;;;;;;;;;;5072328;28;20486;-78
2023/06/17 05:25:46;;;;;;;29.98;20.30;;;;;;;;;;5072506;28;20056;-78
2023/06/17 05:28:13;;;;;;;27.27;18.88;;;;;;;;;;5039022;28;20041;-78
2023/06/17 05:30:39;;;;;;;32.72;20.15;;;;;;;;;;5072109;28;20420;-84
2023/06/17 05:33:05;;;;;;;30.17;20.13;;;;;;;;;;5055786;28;20098;-84
2023/06/17 05:35:32;;;;;;;29.95;20.23;;;;;;;;;;5071637;28;20041;-85
2023/06/17 05:37:58;;;;;;;26.05;17.77;;;;;;;;;;5072331;28;20040;-84
2023/06/17 05:40:24;;;;;;;27.52;17.67;;;;;;;;;;5055663;28;20473;-84
2023/06/17 05:42:50;;;;;;;23.88;16.80;;;;;;;;;;5072490;28;20481;-85
2023/06/17 05:45:16;;;;;;;25.83;17.67;;;;;;;;;;5056502;28;20040;-84
2023/06/17 05:47:42;;;;;;;26.55;18.75;;;;;;;;;;5039837;28;20539;-84
2023/06/17 05:50:08;;;;;;;24.73;16.58;;;;;;;;;;5072951;28;20052;-84
2023/06/17 05:52:34;;;;;;;23.20;17.15;;;;;;;;;;5105617;28;20041;-84
2023/06/17 05:55:00;;;;;;;25.55;17.38;;;;;;;;;;5071626;28;20044;-78
2023/06/17 05:57:26;;;;;;;26.38;18.35;;;;;;;;;;5072576;28;20048;-78
2023/06/17 05:59:52;;;;;;;27.38;18.67;;;;;;;;;;5055089;28;20486;-78
2023/06/17 06:02:19;;;;;;;27.92;16.38;;;;;;;;;;5055494;28;20493;-84
2023/06/17 06:04:47;;;;;;;25.02;17.58;;;;;;;;;;5071220;28;20047;-84
2023/06/17 06:07:13;;;;;;;22.55;16.95;;;;;;;;;;5071409;28;20051;-84
2023/06/17 06:09:39;;;;;;;21.05;15.77;;;;;;;;;;5071341;28;20472;-78
2023/06/17 06:12:06;;;;;;;20.58;15.27;;;;;;;;;;5071781;28;20032;-78
2023/06/17 06:14:32;;;;;;;21.17;15.18;;;;;;;;;;5071450;28;20090;-78
2023/06/17 06:16:58;;;;;;;20.92;14.70;;;;;;;;;;5068095;28;20048;-78
2023/06/17 06:19:24;;;;;;;19.90;13.68;;;;;;;;;;5105315;28;20040;-85
2023/06/17 06:21:50;;;;;;;17.00;12.52;;;;;;;;;;5071359;28;20131;-85
2023/06/17 06:24:16;;;;;;;17.70;11.88;;;;;;;;;;5071052;28;20126;-85
2023/06/17 06:26:42;;;;;;;13.90;10.73;;;;;;;;;;5070672;28;20145;-86
2023/06/17 06:29:09;;;;;;;14.38;10.18;;;;;;;;;;5071047;28;20041;-83
2023/06/17 06:31:35;;;;;;;14.85;10.68;;;;;;;;;;5071066;28;20090;-83
2023/06/17 06:34:01;;;;;;;14.75;9.75;;;;;;;;;;5071209;28;20063;-76
2023/06/17 06:36:27;;;;;;;14.32;10.13;;;;;;;;;;5054009;28;20036;-76
2023/06/17 06:38:53;;;;;;;15.63;10.60;;;;;;;;;;5054965;28;20040;-84
2023/06/17 06:41:19;;;;;;;16.60;11.23;;;;;;;;;;5054659;28;20036;-85
2023/06/17 06:43:45;;;;;;;15.52;11.18;;;;;;;;;;5071040;28;20095;-83
2023/06/17 06:46:12;;;;;;;16.17;10.73;;;;;;;;;;5072257;28;20047;-77
2023/06/17 06:48:38;;;;;;;16.45;12.00;;;;;;;;;;5070744;28;20036;-78
2023/06/17 06:51:04;;;;;;;14.18;11.73;;;;;;;;;;5057161;28;20505;-78
2023/06/17 06:53:30;;;;;;;18.85;11.52;;;;;;;;;;5071624;28;20051;-79
2023/06/17 06:55:56;;;;;;;14.88;11.30;;;;;;;;;;5070768;28;20056;-79
2023/06/17 06:58:22;;;;;;;13.82;10.68;;;;;;;;;;5054198;28;20492;-84
2023/06/17 07:00:48;;;;;;;13.80;10.18;;;;;;;;;;5070409;28;20040;-83
2023/06/17 07:03:15;;;;;;;15.05;10.18;;;;;;;;;;5054384;28;20121;-84
2023/06/17 07:05:41;;;;;;;14.57;10.40;;;;;;;;;;5070314;28;20036;-83
2023/06/17 07:08:07;;;;;;;15.32;9.93;;;;;;;;;;5053969;28;20048;-76
2023/06/17 07:10:33;;;;;;;15.68;9.75;;;;;;;;;;5070101;28;20156;-83
2023/06/17 07:12:59;;;;;;;13.57;9.55;;;;;;;;;;5070961;28;20048;-83
2023/06/17 07:15:25;;;;;;;14.52;9.20;;;;;;;;;;5050876;28;20043;-84
2023/06/17 07:17:51;;;;;;;13.45;9.90;;;;;;;;;;5071468;28;20075;-84
2023/06/17 07:20:18;;;;;;;17.58;10.48;;;;;;;;;;5070527;28;20051;-84
2023/06/17 07:22:44;;;;;;;12.02;9.20;;;;;;;;;;5053784;28;20036;-77
2023/06/17 07:25:10;;;;;;;12.48;9.40;;;;;;;;;;5070887;28;20396;-76
2023/06/17 07:27:36;;;;;;;12.70;9.88;;;;;;;;;;5069828;28;20063;-77
2023/06/17 07:30:02;;;;;;;14.68;9.90;;;;;;;;;;5070843;28;20041;-77
2023/06/17 07:32:28;;;;;;;12.88;9.05;;;;;;;;;;5070560;28;20044;-83
2023/06/17 07:34:55;;;;;;;11.93;9.57;;;;;;;;;;5074238;28;20097;-84
2023/06/17 07:37:21;;;;;;;12.70;10.00;;;;;;;;;;5057739;28;20080;-84
2023/06/17 07:39:47;;;;;;;15.20;8.82;;;;;;;;;;5074287;28;20087;-85
2023/06/17 07:42:16;;;;;;;14.32;10.32;;;;;;;;;;5074361;28;20047;-85
2023/06/17 07:44:42;;;;;;;14.93;10.27;;;;;;;;;;5073836;28;20040;-85
2023/06/17 07:47:08;;;;;;;14.13;9.32;;;;;;;;;;5057466;28;20040;-85
2023/06/17 07:49:36;;;;;;;16.92;9.43;;;;;;;;;;5057676;28;20165;-78
2023/06/17 07:52:02;;;;;;;17.58;9.98;;;;;;;;;;5074395;28;20040;-78
2023/06/17 07:54:28;;;;;;;13.02;9.60;;;;;;;;;;5073751;28;20053;-78
2023/06/17 07:56:54;;;;;;;12.95;8.80;;;;;;;;;;5073716;28;20491;-78
2023/06/17 07:59:20;;;;;;;12.30;8.52;;;;;;;;;;5073991;28;20046;-78
2023/06/17 08:01:46;;;;;;;13.15;9.40;;;;;;;;;;5056849;28;20044;-78
2023/06/17 08:04:12;;;;;;;11.45;8.75;;;;;;;;;;5073998;28;20032;-78
2023/06/17 08:06:40;;;;;;;14.20;8.80;;;;;;;;;;5073307;28;20058;-85
2023/06/17 08:09:07;;;;;;;12.93;8.40;;;;;;;;;;5075072;28;20275;-85
2023/06/17 08:11:34;;;;;;;11.30;8.57;;;;;;;;;;5059016;28;20075;-85
2023/06/17 08:14:00;;;;;;;12.45;8.70;;;;;;;;;;5075811;28;20422;-85
2023/06/17 08:16:27;;;;;;;13.98;8.55;;;;;;;;;;5072205;28;20056;-85
2023/06/17 08:18:53;;;;;;;11.10;8.30;;;;;;;;;;5075532;28;20052;-85
2023/06/17 08:21:19;;;;;;;10.23;8.32;;;;;;;;;;5064745;28;20501;-85
2023/06/17 08:23:45;;;;;;;13.82;9.30;;;;;;;;;;5069034;28;20393;-78
2023/06/17 08:26:11;;;;;;;13.85;9.50;;;;;;;;;;5073591;28;20037;-78
2023/06/17 08:28:38;;;;;;;15.93;9.65;;;;;;;;;;5056615;28;20047;-78
2023/06/17 08:31:04;;;;;;;13.73;8.40;;;;;;;;;;5073259;28;20048;-77
2023/06/17 08:33:30;;;;;;;15.65;8.75;;;;;;;;;;5073537;28;20541;-78
2023/06/17 08:35:56;;;;;;;13.13;8.85;;;;;;;;;;5072902;28;20041;-78
2023/06/17 08:38:23;;;;;;;17.02;8.68;;;;;;;;;;5056782;28;20460;-78
2023/06/17 08:40:49;;;;;;;11.38;8.27;;;;;;;;;;5072830;28;20051;-78
2023/06/17 08:43:21;;;;;;;15.95;8.18;;;;;;;;;;5073269;28;20036;-78
2023/06/17 08:45:49;;;;;;;14.73;8.93;;;;;;;;;;5072746;28;20059;-78
2023/06/17 08:48:15;;;;;;;12.15;8.55;;;;;;;;;;5073113;28;20123;-78
2023/06/17 08:50:42;;;;;;;9.82;7.25;;;;;;;;;;5073396;28;20036;-78
2023/06/17 08:53:08;;;;;;;11.40;7.90;;;;;;;;;;5072877;28;20489;-78
2023/06/17 08:55:35;;;;;;;11.55;8.10;;;;;;;;;;5040079;28;20079;-78
2023/06/17 08:58:01;;;;;;;11.15;9.27;;;;;;;;;;5072764;28;20091;-77
2023/06/17 09:00:28;;;;;;;9.57;7.57;;;;;;;;;;5072797;28;20041;-77
2023/06/17 09:02:54;;;;;;;11.02;7.85;;;;;;;;;;5072763;28;20389;-78
2023/06/17 09:05:21;;;;;;;10.30;7.80;;;;;;;;;;5073060;28;20435;-78
2023/06/17 09:07:47;;;;;;;10.48;7.50;;;;;;;;;;5073846;28;20174;-78
2023/06/17 09:10:15;;;;;;;12.30;8.30;;;;;;;;;;5072783;28;20501;-78
2023/06/17 09:12:41;;;;;;;12.43;8.00;;;;;;;;;;5072602;28;20115;-77
2023/06/17 09:15:08;;;;;;;11.85;8.10;;;;;;;;;;5052730;28;20535;-78
2023/06/17 09:17:37;;;;;;;12.65;7.55;;;;;;;;;;5055962;28;20045;-78
2023/06/17 09:20:10;;;;;;;11.85;8.20;;;;;;;;;;5072187;28;20124;-78
2023/06/17 09:22:38;;;;;;;12.13;6.55;;;;;;;;;;5072424;28;20064;-77
2023/06/17 09:25:04;;;;;;;13.60;6.88;;;;;;;;;;5072335;28;20151;-78
2023/06/17 09:27:30;;;;;;;10.02;7.38;;;;;;;;;;5055672;28;20029;-77
2023/06/17 09:30:09;;;;;;;12.65;6.72;;;;;;;;;;5071809;28;20064;-78
2023/06/17 09:32:42;;;;;;;9.77;6.43;;;;;;;;;;5072455;28;20061;-79
2023/06/17 09:35:14;;;;;;;10.43;7.38;;;;;;;;;;5073264;28;20110;-77
2023/06/17 09:37:42;;;;;;;13.95;6.88;;;;;;;;;;5071977;28;20067;-77
2023/06/17 09:40:08;;;;;;;9.50;6.88;;;;;;;;;;5071696;28;20044;-77
2023/06/17 09:42:34;;;;;;;9.68;6.28;;;;;;;;;;5073252;28;20047;-77
2023/06/17 09:45:02;;;;;;;13.55;7.28;;;;;;;;;;5071878;28;20485;-77
2023/06/17 09:47:37;;;;;;;12.93;7.25;;;;;;;;;;5071770;28;20041;-77
2023/06/17 09:50:11;;;;;;;9.15;7.25;;;;;;;;;;5055087;28;20141;-77
2023/06/17 09:52:38;;;;;;;10.70;7.53;;;;;;;;;;5071740;28;20048;-77
2023/06/17 09:55:05;;;;;;;9.40;6.93;;;;;;;;;;5054274;28;20560;-77
2023/06/17 09:57:32;;;;;;;13.55;6.55;;;;;;;;;;5071617;28;20098;-77
2023/06/17 10:00:09;;;;;;;9.50;6.93;;;;;;;;;;5071339;28;20120;-77
2023/06/17 10:02:36;;;;;;;10.45;6.60;;;;;;;;;;5072004;28;20401;-77
2023/06/17 10:05:03;;;;;;;10.15;6.80;;;;;;;;;;5071061;28;20079;-77
2023/06/17 10:07:29;;;;;;;8.55;6.07;;;;;;;;;;5071774;28;20055;-84
2023/06/17 10:09:56;;;;;;;9.73;6.93;;;;;;;;;;5071093;28;20083;-77
2023/06/17 10:12:22;;;;;;;16.30;6.68;;;;;;;;;;5054750;28;20032;-77
2023/06/17 10:14:48;;;;;;;12.23;7.03;;;;;;;;;;5070880;28;20036;-84
2023/06/17 10:17:16;;;;;;;12.20;6.68;;;;;;;;;;5069251;28;20405;-77
2023/06/17 10:19:44;;;;;;;10.95;7.70;;;;;;;;;;5071497;28;20485;-77
2023/06/17 10:22:11;;;;;;;9.35;6.88;;;;;;;;;;5054171;28;20133;-77
2023/06/17 10:24:38;;;;;;;11.23;6.90;;;;;;;;;;5071796;28;20393;-77
2023/06/17 10:27:06;;;;;;;10.68;7.07;;;;;;;;;;5070724;28;20115;-77
2023/06/17 10:29:35;;;;;;;9.68;6.20;;;;;;;;;;5071019;28;20090;-78
2023/06/17 10:32:34;;;;;;;10.88;6.35;;;;;;;;;;5054224;28;20040;-78
2023/06/17 10:35:06;;;;;;;10.02;6.00;;;;;;;;;;5032634;28;20128;-86
2023/06/17 10:37:44;;;;;;;9.35;6.43;;;;;;;;;;5082223;28;20036;-85
2023/06/17 10:40:19;;;;;;;12.30;6.40;;;;;;;;;;5070964;28;20053;-78
2023/06/17 10:43:06;;;;;;;11.10;6.20;;;;;;;;;;5071348;28;20044;-78
2023/06/17 10:45:33;;;;;;;10.38;6.95;;;;;;;;;;5064427;28;20521;-85
2023/06/17 10:48:18;;;;;;;10.85;6.57;;;;;;;;;;5071943;28;20082;-86
2023/06/17 10:50:48;;;;;;;9.88;5.68;;;;;;;;;;5070886;28;20048;-78
2023/06/17 10:53:16;;;;;;;8.07;5.53;;;;;;;;;;5055810;28;20115;-85
2023/06/17 10:55:42;;;;;;;7.40;5.18;;;;;;;;;;5072850;28;20048;-85
2023/06/17 10:58:08;;;;;;;10.98;5.95;;;;;;;;;;5073757;28;20044;-85
2023/06/17 11:00:34;;;;;;;20.55;6.15;;;;;;;;;;5073791;28;20477;-85
2023/06/17 11:03:01;;;;;;;17.23;6.30;;;;;;;;;;5072436;28;20052;-86
2023/06/17 11:05:27;;;;;;;18.38;6.05;;;;;;;;;;5072893;28;20516;-86
2023/06/17 11:07:53;;;;;;;8.20;4.88;;;;;;;;;;5070734;28;20045;-85
2023/06/17 11:10:24;;;;;;;8.38;4.95;;;;;;;;;;5054752;28;20054;-85
2023/06/17 11:12:51;;;;;;;12.85;5.05;;;;;;;;;;5071836;28;20111;-85
2023/06/17 11:15:17;;;;;;;9.93;6.03;;;;;;;;;;5068729;28;20482;-85
2023/06/17 11:17:43;;;;;;;9.35;5.05;;;;;;;;;;5071448;28;20098;-85
2023/06/17 11:20:11;;;;;;;10.00;5.10;;;;;;;;;;5053980;28;20497;-86
2023/06/17 11:22:38;;;;;;;11.00;5.20;;;;;;;;;;5070678;28;20051;-85
2023/06/17 11:25:04;;;;;;;12.85;6.60;;;;;;;;;;5070533;28;20073;-85
2023/06/17 11:27:30;;;;;;;8.25;5.75;;;;;;;;;;5070966;28;20473;-85
2023/06/17 11:29:56;;;;;;;12.75;6.18;;;;;;;;;;5070548;28;20098;-78
2023/06/17 11:32:24;;;;;;;7.72;5.20;;;;;;;;;;5070119;28;20120;-78
2023/06/17 11:34:51;;;;;;;6.63;5.40;;;;;;;;;;5070472;28;20076;-85
2023/06/17 11:37:17;;;;;;;9.10;5.60;;;;;;;;;;5070088;28;20049;-85
2023/06/17 11:39:43;;;;;;;6.70;5.00;;;;;;;;;;5070398;28;20067;-85
2023/06/17 11:42:10;;;;;;;6.97;5.10;;;;;;;;;;5053558;28;20056;-85
2023/06/17 11:44:37;;;;;;;6.47;4.60;;;;;;;;;;5070715;28;20186;-85
2023/06/17 11:47:04;;;;;;;9.80;5.13;;;;;;;;;;5053435;28;20040;-85
2023/06/17 11:49:30;;;;;;;9.05;5.28;;;;;;;;;;5053811;28;20090;-85
2023/06/17 11:52:01;;;;;;;8.23;4.90;;;;;;;;;;5037273;28;20108;-85
2023/06/17 11:54:28;;;;;;;10.98;5.60;;;;;;;;;;5053245;28;20044;-86
2023/06/17 11:56:55;;;;;;;8.35;4.65;;;;;;;;;;5053642;28;20044;-78
2023/06/17 11:59:21;;;;;;;8.40;4.80;;;;;;;;;;5070240;28;20083;-77
2023/06/17 12:01:47;;;;;;;10.23;5.05;;;;;;;;;;5070076;28;21284;-78
2023/06/17 12:04:14;;;;;;;7.38;4.72;;;;;;;;;;5070102;28;20048;-85
2023/06/17 12:06:44;;;;;;;10.70;5.78;;;;;;;;;;5070406;28;20059;-85
2023/06/17 12:09:11;;;;;;;11.75;6.00;;;;;;;;;;5069911;28;20043;-85
2023/06/17 12:11:41;;;;;;;9.43;5.28;;;;;;;;;;5070141;28;20060;-85
2023/06/17 12:14:08;;;;;;;7.57;5.00;;;;;;;;;;5026307;28;20516;-85
2023/06/17 12:16:35;;;;;;;7.63;4.38;;;;;;;;;;5067110;28;20044;-85
2023/06/17 12:19:04;;;;;;;8.52;5.00;;;;;;;;;;5054820;28;20043;-85
2023/06/17 12:21:30;;;;;;;13.98;5.82;;;;;;;;;;5073253;28;20123;-85
2023/06/17 12:23:56;;;;;;;8.60;4.88;;;;;;;;;;5073570;28;20055;-86
2023/06/17 12:26:26;;;;;;;8.82;4.90;;;;;;;;;;5074518;28;20389;-79
2023/06/17 12:28:55;;;;;;;9.05;5.07;;;;;;;;;;5073503;28;20042;-79
2023/06/17 12:31:22;;;;;;;8.82;5.20;;;;;;;;;;5073206;28;20386;-79
2023/06/17 12:33:48;;;;;;;8.48;5.07;;;;;;;;;;5057154;28;20067;-79
2023/06/17 12:36:14;;;;;;;9.77;4.70;;;;;;;;;;5073008;28;20040;-79
2023/06/17 12:38:40;;;;;;;8.55;5.60;;;;;;;;;;5073409;28;20051;-79
2023/06/17 12:41:07;;;;;;;12.88;5.95;;;;;;;;;;5107187;28;20439;-79
2023/06/17 12:43:35;;;;;;;6.82;4.78;;;;;;;;;;5056582;28;20408;-79
2023/06/17 12:46:01;;;;;;;7.18;5.00;;;;;;;;;;5073339;28;20458;-79
2023/06/17 12:48:28;;;;;;;8.48;5.43;;;;;;;;;;5056150;28;20040;-79
2023/06/17 12:50:54;;;;;;;10.73;5.70;;;;;;;;;;5073073;28;20048;-79
2023/06/17 12:53:21;;;;;;;10.10;5.47;;;;;;;;;;5068676;28;20044;-79
2023/06/17 12:55:47;;;;;;;11.07;5.88;;;;;;;;;;5056536;28;20427;-79
2023/06/17 12:58:13;;;;;;;9.20;5.38;;;;;;;;;;5072587;28;20044;-79
2023/06/17 13:00:39;;;;;;;8.00;5.40;;;;;;;;;;5056253;28;20036;-79
2023/06/17 13:03:06;;;;;;;10.27;5.15;;;;;;;;;;5056311;28;20040;-79
2023/06/17 13:05:32;;;;;;;9.65;5.47;;;;;;;;;;5056075;28;20048;-79
2023/06/17 13:07:58;;;;;;;9.60;4.85;;;;;;;;;;5056110;28;20044;-79
2023/06/17 13:10:25;;;;;;;8.82;5.30;;;;;;;;;;5072297;28;20048;-79
2023/06/17 13:12:51;;;;;;;8.23;4.95;;;;;;;;;;5073236;28;20520;-86
2023/06/17 13:15:17;;;;;;;10.15;5.38;;;;;;;;;;5069932;28;20037;-86
2023/06/17 13:17:44;;;;;;;11.45;5.18;;;;;;;;;;5073007;28;20489;-79
2023/06/17 13:20:11;;;;;;;12.80;5.10;;;;;;;;;;5073034;28;20127;-86
2023/06/17 13:22:37;;;;;;;10.50;4.68;;;;;;;;;;5056045;28;20297;-79
2023/06/17 13:25:05;;;;;;;9.75;4.95;;;;;;;;;;5056011;28;20036;-79
2023/06/17 13:27:32;;;;;;;7.75;5.13;;;;;;;;;;5071975;28;20041;-86
2023/06/17 13:29:58;;;;;;;8.52;5.00;;;;;;;;;;5073257;28;20047;-86
2023/06/17 13:32:25;;;;;;;10.80;4.95;;;;;;;;;;5054776;28;20037;-86
2023/06/17 13:34:51;;;;;;;8.10;4.47;;;;;;;;;;5072609;28;20040;-86
2023/06/17 13:37:18;;;;;;;7.10;4.97;;;;;;;;;;5055063;28;20048;-79
2023/06/17 13:39:44;;;;;;;11.35;5.05;;;;;;;;;;5072513;28;20045;-86
2023/06/17 13:42:11;;;;;;;11.15;4.80;;;;;;;;;;5072408;28;20052;-86
2023/06/17 13:44:37;;;;;;;13.98;5.25;;;;;;;;;;5071644;28;20072;-86
2023/06/17 13:47:07;;;;;;;12.80;5.00;;;;;;;;;;5056807;28;20543;-86
2023/06/17 13:49:33;;;;;;;8.57;4.88;;;;;;;;;;5072288;28;20076;-87
2023/06/17 13:52:00;;;;;;;8.55;5.25;;;;;;;;;;5055674;28;20052;-86
2023/06/17 13:54:27;;;;;;;6.60;4.93;;;;;;;;;;5071616;28;20056;-86
2023/06/17 13:56:53;;;;;;;10.40;4.97;;;;;;;;;;5054955;28;20052;-86
2023/06/17 13:59:20;;;;;;;8.05;5.22;;;;;;;;;;5072769;28;20041;-86
2023/06/17 14:01:46;;;;;;;12.93;5.18;;;;;;;;;;5055314;28;20127;-86
2023/06/17 14:04:12;;;;;;;8.13;5.20;;;;;;;;;;5071697;28;20041;-79
2023/06/17 14:06:39;;;;;;;8.35;4.93;;;;;;;;;;5071489;28;20048;-79
2023/06/17 14:09:06;;;;;;;7.15;5.10;;;;;;;;;;5054882;28;20041;-79
2023/06/17 14:11:37;;;;;;;13.20;5.40;;;;;;;;;;5071278;28;20044;-79
2023/06/17 14:14:04;;;;;;;13.90;5.07;;;;;;;;;;5038841;28;20473;-86
2023/06/17 14:16:30;;;;;;;8.90;4.93;;;;;;;;;;5068459;28;20036;-86
2023/06/17 14:18:56;;;;;;;9.20;4.90;;;;;;;;;;5071345;28;20036;-86
2023/06/17 14:21:27;;;;;;;7.57;5.03;;;;;;;;;;5071023;28;20048;-86
2023/06/17 14:23:53;;;;;;;6.65;4.80;;;;;;;;;;5071549;28;20040;-86
2023/06/17 14:26:19;;;;;;;9.52;4.80;;;;;;;;;;5071202;28;20071;-87